Time;durP1;ratioP1;P1;durP2;ratioP2;P2;SDS_P1;SDS_P2;PMS_P1;PMS_P2;Temp;Humidity;BMP_temperature;BMP_pressure;BME280_temperature;BME280_humidity;BME280_pressure;Samples;Min_cycle;Max_cycle;Signal;HPM_P1;HPM_P2
2023/04/24 00:00:15;;;;;;;5.00;2.03;;;10.60;99.90;;;;;;5063396;28;20194;-63
2023/04/24 00:02:46;;;;;;;4.72;2.20;;;10.50;99.90;;;;;;5064995;28;20048;-64
2023/04/24 00:05:15;;;;;;;3.92;1.60;;;10.40;99.90;;;;;;5046865;28;20423;-64
2023/04/24 00:07:41;;;;;;;6.35;1.80;;;10.40;99.90;;;;;;5052284;28;20391;-64
2023/04/24 00:10:08;;;;;;;4.82;2.20;;;10.30;99.90;;;;;;5083282;28;20055;-64
2023/04/24 00:12:34;;;;;;;6.20;2.30;;;10.30;99.90;;;;;;5067640;28;20367;-65
2023/04/24 00:15:00;;;;;;;5.20;1.80;;;10.20;99.90;;;;;;5046310;28;20073;-64
2023/04/24 00:17:26;;;;;;;4.20;1.40;;;10.20;99.90;;;;;;5063347;28;20128;-64
2023/04/24 00:19:58;;;;;;;4.30;1.40;;;10.20;99.90;;;;;;5063276;28;20090;-65
2023/04/24 00:22:27;;;;;;;3.13;1.40;;;10.20;99.90;;;;;;5063422;28;20226;-64
2023/04/24 00:24:53;;;;;;;5.95;1.40;;;10.20;99.90;;;;;;5049829;28;20680;-65
2023/04/24 00:27:19;;;;;;;3.65;1.20;;;10.10;99.90;;;;;;5076022;28;20071;-64
2023/04/24 00:29:45;;;;;;;3.70;1.40;;;10.10;99.90;;;;;;5060327;28;20123;-65
2023/04/24 00:32:11;;;;;;;2.83;1.20;;;10.10;99.90;;;;;;5063366;28;20401;-66
2023/04/24 00:34:36;;;;;;;3.00;1.25;;;10.10;99.90;;;;;;5013901;28;20239;-65
2023/04/24 00:37:02;;;;;;;3.65;1.40;;;10.00;99.90;;;;;;5064002;28;20095;-67
2023/04/24 00:39:28;;;;;;;6.90;1.48;;;10.00;99.90;;;;;;5066366;28;20047;-67
2023/04/24 00:41:55;;;;;;;4.10;1.42;;;10.00;99.90;;;;;;5072783;28;20044;-63
2023/04/24 00:44:23;;;;;;;3.28;1.30;;;10.00;99.90;;;;;;5049898;28;20051;-66
2023/04/24 00:46:54;;;;;;;5.60;1.42;;;9.90;99.90;;;;;;5067442;28;20076;-66
2023/04/24 00:49:20;;;;;;;3.50;1.65;;;9.90;99.90;;;;;;5066823;28;20055;-66
2023/04/24 00:51:46;;;;;;;4.75;1.80;;;9.80;99.90;;;;;;5061751;28;20472;-66
2023/04/24 00:54:13;;;;;;;6.80;2.28;;;9.80;99.90;;;;;;5074467;28;20058;-67
2023/04/24 00:56:41;;;;;;;5.10;2.58;;;9.80;99.90;;;;;;5080411;28;20123;-67
2023/04/24 00:59:07;;;;;;;6.00;2.15;;;9.70;99.90;;;;;;5082631;28;20067;-66
2023/04/24 01:01:33;;;;;;;7.05;2.33;;;9.70;99.90;;;;;;5049941;28;20051;-67
2023/04/24 01:03:59;;;;;;;4.47;2.30;;;9.60;99.90;;;;;;5049841;28;20236;-66
2023/04/24 01:06:28;;;;;;;4.85;2.47;;;9.60;99.90;;;;;;5066483;28;20040;-67
2023/04/24 01:08:55;;;;;;;5.70;2.60;;;9.60;99.90;;;;;;5049998;28;20127;-67
2023/04/24 01:11:21;;;;;;;5.28;2.65;;;9.60;99.90;;;;;;5078138;28;20467;-66
2023/04/24 01:13:48;;;;;;;4.80;2.47;;;9.60;99.90;;;;;;5049893;28;20045;-67
2023/04/24 01:16:20;;;;;;;4.75;2.38;;;9.60;99.90;;;;;;5083192;28;20089;-67
2023/04/24 01:18:46;;;;;;;4.68;2.58;;;9.60;99.90;;;;;;5076174;28;20348;-66
2023/04/24 01:21:16;;;;;;;5.32;2.40;;;9.60;99.90;;;;;;5049578;28;20045;-66
2023/04/24 01:23:43;;;;;;;5.30;2.60;;;9.60;99.90;;;;;;5049732;28;20531;-66
2023/04/24 01:26:09;;;;;;;6.93;2.72;;;9.60;99.90;;;;;;5033731;28;20522;-66
2023/04/24 01:28:35;;;;;;;5.50;2.60;;;9.60;99.90;;;;;;5049513;28;20036;-65
2023/04/24 01:31:01;;;;;;;5.72;3.03;;;9.60;99.90;;;;;;5066024;28;20052;-66
2023/04/24 01:33:27;;;;;;;5.53;3.05;;;9.60;99.90;;;;;;5065866;28;20047;-65
2023/04/24 01:35:54;;;;;;;6.78;3.70;;;9.60;99.90;;;;;;5049864;28;20127;-65
2023/04/24 01:38:20;;;;;;;6.05;3.60;;;9.60;99.90;;;;;;5049277;28;20068;-68
2023/04/24 01:40:46;;;;;;;6.45;3.60;;;9.60;99.90;;;;;;5048844;28;20435;-67
2023/04/24 01:43:12;;;;;;;6.82;3.92;;;9.60;99.90;;;;;;5065488;28;20037;-67
2023/04/24 01:45:38;;;;;;;6.47;3.95;;;9.60;99.90;;;;;;5048734;28;20051;-67
2023/04/24 01:48:04;;;;;;;7.03;4.30;;;9.60;99.90;;;;;;5065998;28;20040;-68
2023/04/24 01:50:30;;;;;;;8.88;4.57;;;9.60;99.90;;;;;;5048913;28;20034;-67
2023/04/24 01:52:56;;;;;;;8.80;4.80;;;9.60;99.90;;;;;;5065963;28;20249;-69
2023/04/24 01:55:21;;;;;;;7.30;4.57;;;9.70;99.90;;;;;;5064991;28;20469;-69
2023/04/24 01:57:47;;;;;;;7.55;4.63;;;9.60;99.90;;;;;;5049233;28;20154;-68
2023/04/24 02:00:14;;;;;;;7.70;4.65;;;9.60;99.90;;;;;;5048662;28;20309;-67
2023/04/24 02:02:40;;;;;;;8.80;5.38;;;9.70;99.90;;;;;;5048781;28;20051;-68
2023/04/24 02:05:07;;;;;;;9.02;5.32;;;9.70;99.90;;;;;;5048643;28;20131;-67
2023/04/24 02:07:33;;;;;;;8.23;5.25;;;9.70;99.90;;;;;;5065368;28;20037;-67
2023/04/24 02:09:59;;;;;;;8.45;5.45;;;9.70;99.90;;;;;;5079134;28;20272;-68
2023/04/24 02:12:25;;;;;;;9.70;5.88;;;9.70;99.90;;;;;;5054546;28;20041;-68
2023/04/24 02:14:51;;;;;;;11.43;6.35;;;9.60;99.90;;;;;;5065252;28;20129;-65
2023/04/24 02:17:17;;;;;;;9.50;6.18;;;9.60;99.90;;;;;;5048220;28;20044;-67
2023/04/24 02:19:43;;;;;;;10.45;7.30;;;9.60;99.90;;;;;;5065481;28;20119;-68
2023/04/24 02:22:08;;;;;;;11.20;7.60;;;9.60;99.90;;;;;;5048518;28;20040;-67
2023/04/24 02:24:34;;;;;;;11.48;8.00;;;9.60;99.90;;;;;;5065128;28;20162;-66
2023/04/24 02:27:01;;;;;;;10.73;7.78;;;9.60;99.90;;;;;;5064986;28;20044;-65
2023/04/24 02:29:27;;;;;;;11.57;8.07;;;9.70;99.90;;;;;;5048614;28;20664;-67
2023/04/24 02:31:53;;;;;;;11.82;7.90;;;9.70;99.90;;;;;;5048164;28;20044;-67
2023/04/24 02:34:18;;;;;;;13.90;8.50;;;9.60;99.90;;;;;;5064991;28;20458;-68
2023/04/24 02:36:44;;;;;;;12.18;8.68;;;9.70;99.90;;;;;;5048452;28;20646;-67
2023/04/24 02:39:10;;;;;;;14.10;8.98;;;9.70;99.90;;;;;;5064908;28;20134;-67
2023/04/24 02:41:36;;;;;;;15.52;9.13;;;9.70;99.90;;;;;;5048003;28;20051;-66
2023/04/24 02:44:02;;;;;;;14.13;9.52;;;9.70;99.90;;;;;;5048172;28;20051;-66
2023/04/24 02:46:30;;;;;;;13.98;9.52;;;9.70;99.90;;;;;;5050305;28;20684;-66
2023/04/24 02:48:56;;;;;;;17.80;10.15;;;9.70;99.90;;;;;;5077759;28;20036;-67
2023/04/24 02:51:22;;;;;;;16.85;9.73;;;9.80;99.90;;;;;;5067228;28;20421;-66
2023/04/24 02:53:50;;;;;;;14.55;9.90;;;9.70;99.90;;;;;;5084279;28;20411;-68
2023/04/24 02:56:16;;;;;;;15.60;10.23;;;9.70;99.90;;;;;;5067767;28;20047;-67
2023/04/24 02:58:42;;;;;;;14.80;9.82;;;9.80;99.90;;;;;;5067971;28;20052;-66
2023/04/24 03:01:09;;;;;;;16.27;11.00;;;9.80;99.90;;;;;;5068410;28;20044;-64
2023/04/24 03:03:36;;;;;;;17.83;13.13;;;9.70;99.90;;;;;;5064096;28;20087;-65
2023/04/24 03:06:02;;;;;;;16.40;13.00;;;9.70;99.90;;;;;;5064729;28;20498;-66
2023/04/24 03:08:28;;;;;;;17.70;13.40;;;9.70;99.90;;;;;;5064389;28;20119;-67
2023/04/24 03:10:53;;;;;;;19.73;14.13;;;9.60;99.90;;;;;;5064640;28;20048;-64
2023/04/24 03:13:19;;;;;;;19.30;14.50;;;9.60;99.90;;;;;;5084534;28;20131;-66
2023/04/24 03:15:46;;;;;;;22.45;15.07;;;9.60;99.90;;;;;;5070918;28;20495;-66
2023/04/24 03:18:12;;;;;;;18.90;14.07;;;9.60;99.90;;;;;;5064413;28;20079;-66
2023/04/24 03:20:38;;;;;;;20.48;14.00;;;9.60;99.90;;;;;;5064507;28;20456;-65
2023/04/24 03:23:04;;;;;;;19.27;14.35;;;9.60;99.90;;;;;;5063612;28;20133;-65
2023/04/24 03:25:29;;;;;;;16.48;13.55;;;9.60;99.90;;;;;;5047227;28;20090;-65
2023/04/24 03:27:55;;;;;;;16.77;13.82;;;9.60;99.90;;;;;;5047833;28;20041;-66
2023/04/24 03:30:21;;;;;;;16.95;12.80;;;9.50;99.90;;;;;;5047281;28;20556;-66
2023/04/24 03:32:47;;;;;;;15.38;12.55;;;9.50;99.90;;;;;;5047405;28;20052;-65
2023/04/24 03:35:13;;;;;;;15.48;11.93;;;9.50;99.90;;;;;;5047345;28;20129;-64
2023/04/24 03:37:38;;;;;;;15.15;12.23;;;9.50;99.90;;;;;;5063955;28;20048;-67
2023/04/24 03:40:06;;;;;;;17.33;12.52;;;9.50;99.90;;;;;;5063852;28;20040;-66
2023/04/24 03:42:31;;;;;;;17.25;12.98;;;9.50;99.90;;;;;;5079326;28;20044;-66
2023/04/24 03:44:57;;;;;;;15.02;11.55;;;9.50;99.90;;;;;;5077389;28;20052;-64
2023/04/24 03:47:23;;;;;;;14.70;11.07;;;9.50;99.90;;;;;;5060101;28;20051;-65
2023/04/24 03:49:49;;;;;;;14.90;10.77;;;9.50;99.90;;;;;;5084031;28;20032;-67
2023/04/24 03:52:15;;;;;;;15.70;10.63;;;9.50;99.90;;;;;;5062319;28;20127;-67
2023/04/24 03:54:41;;;;;;;12.13;9.57;;;9.40;99.90;;;;;;5063637;28;20753;-66
2023/04/24 03:57:07;;;;;;;14.50;10.10;;;9.40;99.90;;;;;;5047067;28;20048;-66
2023/04/24 03:59:32;;;;;;;12.55;9.45;;;9.40;99.90;;;;;;5046635;28;20044;-66
2023/04/24 04:01:58;;;;;;;12.65;8.65;;;9.40;99.90;;;;;;5046949;28;20074;-67
2023/04/24 04:04:24;;;;;;;12.32;9.23;;;9.40;99.90;;;;;;5046757;28;20098;-67
2023/04/24 04:06:50;;;;;;;11.77;8.48;;;9.40;99.90;;;;;;5047006;28;20150;-67
2023/04/24 04:09:16;;;;;;;11.10;8.57;;;9.40;99.90;;;;;;5047052;28;20427;-65
2023/04/24 04:11:42;;;;;;;12.40;8.13;;;9.40;99.90;;;;;;5046730;28;20040;-66
2023/04/24 04:14:08;;;;;;;11.60;8.52;;;9.40;99.90;;;;;;5047241;28;20558;-68
2023/04/24 04:16:36;;;;;;;11.10;8.32;;;9.40;99.90;;;;;;5046492;28;20120;-68
2023/04/24 04:19:02;;;;;;;16.60;8.43;;;9.30;99.90;;;;;;5056891;28;20054;-66
2023/04/24 04:21:30;;;;;;;13.85;9.13;;;9.40;99.90;;;;;;5066766;28;20044;-64
2023/04/24 04:23:56;;;;;;;12.30;8.98;;;9.30;99.90;;;;;;5039642;28;20359;-68
2023/04/24 04:26:25;;;;;;;14.25;9.52;;;9.30;99.90;;;;;;5063626;28;20075;-66
2023/04/24 04:28:52;;;;;;;14.85;9.88;;;9.30;99.90;;;;;;5046541;28;20032;-67
2023/04/24 04:31:19;;;;;;;13.38;9.60;;;9.30;99.90;;;;;;5046358;28;20028;-70
2023/04/24 04:33:45;;;;;;;16.20;10.35;;;9.30;99.90;;;;;;5047006;28;20456;-67
2023/04/24 04:36:11;;;;;;;16.08;11.38;;;9.30;99.90;;;;;;5047000;28;20056;-67
2023/04/24 04:38:37;;;;;;;21.17;10.90;;;9.30;99.90;;;;;;5046902;28;20036;-69
2023/04/24 04:41:03;;;;;;;16.23;10.60;;;9.30;99.90;;;;;;5046332;28;20210;-65
2023/04/24 04:43:30;;;;;;;14.45;10.30;;;9.30;99.90;;;;;;5046604;28;20044;-68
2023/04/24 04:45:58;;;;;;;13.40;9.43;;;9.30;99.90;;;;;;5047272;28;20068;-67
2023/04/24 04:48:27;;;;;;;12.90;9.45;;;9.30;99.90;;;;;;5083467;28;20407;-66
2023/04/24 04:50:52;;;;;;;13.65;9.40;;;9.30;99.90;;;;;;5080779;28;20133;-68
2023/04/24 04:53:18;;;;;;;13.93;9.57;;;9.30;99.90;;;;;;5046432;28;20041;-66
2023/04/24 04:55:44;;;;;;;15.00;8.95;;;9.30;99.90;;;;;;5046602;28;20040;-66
2023/04/24 04:58:10;;;;;;;13.50;8.50;;;9.30;99.90;;;;;;5062999;28;20076;-64
2023/04/24 05:00:37;;;;;;;11.32;7.63;;;9.30;99.90;;;;;;5062910;28;20057;-63
2023/04/24 05:03:03;;;;;;;11.07;7.50;;;9.30;99.90;;;;;;5046350;28;20163;-61
2023/04/24 05:05:29;;;;;;;10.40;6.72;;;9.30;99.90;;;;;;5030124;28;20591;-61
2023/04/24 05:07:55;;;;;;;11.57;6.63;;;9.30;99.90;;;;;;5063037;28;20041;-63
2023/04/24 05:10:21;;;;;;;10.30;5.80;;;9.30;99.90;;;;;;5063243;28;20569;-63
2023/04/24 05:12:46;;;;;;;7.22;4.43;;;9.30;99.90;;;;;;5063183;28;20045;-63
2023/04/24 05:15:12;;;;;;;9.00;5.00;;;9.30;99.90;;;;;;5062856;28;20523;-62
2023/04/24 05:17:39;;;;;;;8.45;4.95;;;9.30;99.90;;;;;;5062995;28;20037;-62
2023/04/24 05:20:06;;;;;;;8.80;4.55;;;9.30;99.90;;;;;;5046373;28;20028;-62
2023/04/24 05:22:32;;;;;;;8.07;4.03;;;9.30;99.90;;;;;;5062892;28;20047;-61
2023/04/24 05:24:58;;;;;;;7.80;3.55;;;9.30;99.90;;;;;;5062361;28;20045;-62
2023/04/24 05:27:24;;;;;;;5.65;3.00;;;9.30;99.90;;;;;;5067275;28;20308;-61
2023/04/24 05:29:50;;;;;;;5.78;2.97;;;9.30;99.90;;;;;;5071912;28;20032;-62
2023/04/24 05:32:16;;;;;;;5.50;2.75;;;9.30;99.90;;;;;;5066136;28;20347;-61
2023/04/24 05:34:42;;;;;;;7.82;2.95;;;9.30;99.90;;;;;;5067286;28;20056;-61
2023/04/24 05:37:09;;;;;;;5.80;2.90;;;9.30;99.90;;;;;;5065792;28;20229;-62
2023/04/24 05:39:36;;;;;;;4.45;2.22;;;9.30;99.90;;;;;;5066256;28;20037;-61
2023/04/24 05:42:03;;;;;;;4.70;2.20;;;9.30;99.90;;;;;;5058962;28;20040;-61
2023/04/24 05:44:28;;;;;;;6.13;2.35;;;9.30;99.90;;;;;;5084022;28;20047;-61
2023/04/24 05:46:55;;;;;;;4.80;2.30;;;9.20;99.90;;;;;;5064105;28;20039;-62
2023/04/24 05:49:21;;;;;;;5.30;2.33;;;9.20;99.90;;;;;;5077407;28;20075;-62
2023/04/24 05:51:47;;;;;;;8.00;2.60;;;9.20;99.90;;;;;;5058825;28;20324;-61
2023/04/24 05:54:12;;;;;;;6.53;2.70;;;9.20;99.90;;;;;;5075110;28;20048;-62
2023/04/24 05:56:39;;;;;;;5.97;2.88;;;9.20;99.90;;;;;;5068804;28;20043;-62
2023/04/24 05:59:05;;;;;;;6.05;3.05;;;9.20;99.90;;;;;;5047389;28;20139;-62
2023/04/24 06:01:31;;;;;;;5.90;2.85;;;9.30;99.90;;;;;;5066698;28;20111;-62
2023/04/24 06:03:57;;;;;;;5.65;2.75;;;9.30;99.90;;;;;;5066454;28;20048;-63
2023/04/24 06:06:24;;;;;;;5.18;2.30;;;9.30;99.90;;;;;;5066255;28;20201;-61
2023/04/24 06:08:50;;;;;;;7.50;2.95;;;9.40;99.90;;;;;;5064724;28;20086;-62
2023/04/24 06:11:15;;;;;;;6.55;2.58;;;9.40;99.90;;;;;;5049063;28;20040;-62
2023/04/24 06:13:41;;;;;;;4.97;2.22;;;9.40;99.90;;;;;;5067046;28;20047;-62
2023/04/24 06:16:07;;;;;;;5.70;2.20;;;9.40;99.90;;;;;;5066861;28;20261;-62
2023/04/24 06:18:33;;;;;;;5.53;2.42;;;9.50;99.90;;;;;;5049388;28;20469;-62
2023/04/24 06:20:59;;;;;;;4.43;2.00;;;9.40;99.90;;;;;;5065423;28;20118;-62
2023/04/24 06:23:25;;;;;;;5.10;2.30;;;9.50;99.90;;;;;;5055116;28;20046;-62
2023/04/24 06:25:51;;;;;;;4.68;2.20;;;9.50;99.90;;;;;;5067968;28;20042;-63
2023/04/24 06:28:17;;;;;;;5.28;2.55;;;9.50;99.90;;;;;;5085640;28;20036;-63
2023/04/24 06:30:43;;;;;;;4.95;2.33;;;9.40;99.90;;;;;;5073725;28;20086;-63
2023/04/24 06:33:09;;;;;;;5.50;2.40;;;9.40;99.90;;;;;;5072332;28;20041;-64
2023/04/24 06:35:35;;;;;;;5.97;2.70;;;9.50;99.90;;;;;;5057150;28;20054;-62
2023/04/24 06:38:01;;;;;;;6.80;3.10;;;9.50;99.90;;;;;;5078044;28;20339;-62
2023/04/24 06:40:26;;;;;;;7.97;3.75;;;9.50;99.90;;;;;;5057667;28;20032;-64
2023/04/24 06:42:52;;;;;;;9.15;4.28;;;9.50;99.90;;;;;;5078161;28;20052;-62
2023/04/24 06:45:18;;;;;;;11.27;5.20;;;9.50;99.90;;;;;;5059428;28;20109;-62
2023/04/24 06:47:43;;;;;;;13.15;6.30;;;9.60;99.90;;;;;;5064616;28;20036;-62
2023/04/24 06:50:10;;;;;;;11.82;6.15;;;9.70;99.90;;;;;;5068642;28;20044;-62
2023/04/24 06:52:35;;;;;;;11.13;6.57;;;9.80;99.90;;;;;;5085167;28;20130;-62
2023/04/24 06:55:02;;;;;;;12.75;6.03;;;9.90;99.90;;;;;;5071674;28;20147;-62
2023/04/24 06:57:28;;;;;;;13.63;6.90;;;9.90;99.90;;;;;;5072795;28;20275;-63
2023/04/24 06:59:54;;;;;;;11.93;6.47;;;9.90;99.90;;;;;;5074332;28;20084;-63
2023/04/24 07:02:20;;;;;;;15.40;7.55;;;10.00;99.90;;;;;;5065877;28;20079;-63
2023/04/24 07:04:47;;;;;;;12.93;7.78;;;10.00;99.90;;;;;;5067944;28;20040;-61
2023/04/24 07:07:14;;;;;;;13.80;7.85;;;10.00;99.90;;;;;;5065679;28;20040;-62
2023/04/24 07:09:45;;;;;;;14.48;7.90;;;10.00;99.90;;;;;;5065715;28;20539;-62
2023/04/24 07:12:11;;;;;;;11.93;7.05;;;10.00;99.90;;;;;;5038149;28;20039;-62
2023/04/24 07:14:39;;;;;;;13.50;7.68;;;10.00;99.90;;;;;;5064157;28;20697;-63
2023/04/24 07:17:06;;;;;;;14.90;7.40;;;10.00;99.90;;;;;;5047747;28;20088;-62
2023/04/24 07:19:34;;;;;;;16.70;7.60;;;10.00;99.90;;;;;;5047860;28;20045;-63
2023/04/24 07:21:59;;;;;;;16.13;6.20;;;10.00;99.90;;;;;;5056441;28;20510;-61
2023/04/24 07:24:26;;;;;;;19.10;8.55;;;10.00;99.90;;;;;;5070591;28;20041;-61
2023/04/24 07:26:52;;;;;;;11.48;5.78;;;10.10;99.90;;;;;;5064854;28;20087;-62
2023/04/24 07:29:19;;;;;;;12.60;4.95;;;10.00;99.90;;;;;;5065027;28;20550;-62
2023/04/24 07:31:45;;;;;;;9.70;4.28;;;10.10;99.90;;;;;;5048628;28;20101;-63
2023/04/24 07:34:10;;;;;;;10.43;5.43;;;10.10;99.90;;;;;;5047813;28;20453;-62
2023/04/24 07:36:38;;;;;;;11.77;4.40;;;10.10;99.90;;;;;;5064883;28;20086;-61
2023/04/24 07:39:08;;;;;;;9.23;3.20;;;10.10;99.90;;;;;;5047667;28;20036;-62
2023/04/24 07:41:33;;;;;;;7.18;2.08;;;10.10;99.90;;;;;;5069785;28;20055;-60
2023/04/24 07:44:00;;;;;;;7.03;2.40;;;10.10;99.90;;;;;;5084511;28;20044;-62
2023/04/24 07:46:27;;;;;;;7.40;2.65;;;10.00;99.90;;;;;;5053695;28;20036;-63
2023/04/24 07:48:53;;;;;;;9.43;3.05;;;10.00;99.90;;;;;;5078180;28;20082;-63
2023/04/24 07:51:19;;;;;;;8.45;3.17;;;10.00;99.90;;;;;;5063564;28;20095;-64
2023/04/24 07:53:45;;;;;;;9.18;2.75;;;9.90;99.90;;;;;;5063203;28;20071;-62
2023/04/24 07:56:11;;;;;;;10.20;2.78;;;10.00;99.90;;;;;;5046789;28;20381;-65
2023/04/24 07:58:36;;;;;;;15.68;3.42;;;10.00;99.90;;;;;;5063707;28;20041;-62
2023/04/24 08:01:02;;;;;;;8.90;3.30;;;10.00;99.90;;;;;;5046753;28;20142;-65
2023/04/24 08:03:28;;;;;;;9.77;3.65;;;10.00;99.90;;;;;;5064069;28;20090;-62
2023/04/24 08:05:54;;;;;;;10.77;3.42;;;10.00;99.90;;;;;;5063667;28;20089;-62
2023/04/24 08:08:21;;;;;;;12.75;3.38;;;10.00;99.90;;;;;;5064893;28;20127;-62
2023/04/24 08:10:47;;;;;;;11.98;3.38;;;9.90;99.90;;;;;;5063745;28;20051;-63
2023/04/24 08:13:13;;;;;;;10.20;3.85;;;9.90;99.90;;;;;;5063817;28;20037;-63
2023/04/24 08:15:39;;;;;;;9.50;3.15;;;9.90;99.90;;;;;;5074709;28;20044;-61
2023/04/24 08:18:05;;;;;;;10.70;3.88;;;9.80;99.90;;;;;;5081657;28;20044;-62
2023/04/24 08:20:31;;;;;;;11.25;3.75;;;9.80;99.90;;;;;;5063610;28;20557;-61
2023/04/24 08:22:57;;;;;;;11.20;5.18;;;9.80;99.90;;;;;;5046521;28;20195;-62
2023/04/24 08:25:24;;;;;;;15.73;5.70;;;9.70;99.90;;;;;;5065010;28;20040;-61
2023/04/24 08:27:50;;;;;;;14.07;5.80;;;9.80;99.90;;;;;;5078848;28;20028;-62
2023/04/24 08:30:16;;;;;;;19.55;7.95;;;9.70;99.90;;;;;;5046150;28;20044;-61
2023/04/24 08:32:42;;;;;;;30.48;9.02;;;9.70;99.90;;;;;;5064798;28;20048;-62
2023/04/24 08:35:09;;;;;;;18.85;8.90;;;9.70;99.90;;;;;;5063546;28;20068;-62
2023/04/24 08:37:35;;;;;;;22.27;10.93;;;9.60;99.90;;;;;;5061798;28;20083;-63
2023/04/24 08:40:05;;;;;;;25.88;12.98;;;9.60;99.90;;;;;;5073257;28;20474;-62
2023/04/24 08:42:33;;;;;;;25.70;12.70;;;9.60;99.90;;;;;;5069730;28;20846;-61
2023/04/24 08:44:59;;;;;;;22.92;12.70;;;9.50;99.90;;;;;;5077921;28;20072;-64
2023/04/24 08:47:27;;;;;;;26.88;12.88;;;9.50;99.90;;;;;;5064357;28;20110;-63
2023/04/24 08:49:54;;;;;;;27.17;13.77;;;9.50;99.90;;;;;;5046647;28;20048;-62
2023/04/24 08:52:21;;;;;;;30.73;13.40;;;9.50;99.90;;;;;;5046637;28;20660;-63
2023/04/24 08:54:47;;;;;;;30.33;14.02;;;9.40;99.90;;;;;;5074784;28;20320;-63
2023/04/24 08:57:14;;;;;;;23.95;13.13;;;9.40;99.90;;;;;;5072142;28;20040;-62
2023/04/24 08:59:41;;;;;;;31.52;13.88;;;9.40;99.90;;;;;;5046462;28;20048;-64
2023/04/24 09:02:10;;;;;;;25.48;14.20;;;9.40;99.90;;;;;;5063216;28;20040;-62
2023/04/24 09:04:37;;;;;;;25.02;13.38;;;9.30;99.90;;;;;;5065894;28;20106;-65
2023/04/24 09:07:04;;;;;;;27.75;14.98;;;9.30;99.90;;;;;;5068562;28;20067;-63
2023/04/24 09:09:32;;;;;;;22.73;11.85;;;9.30;99.90;;;;;;5080730;28;20044;-64
2023/04/24 09:11:58;;;;;;;31.80;14.20;;;9.20;99.90;;;;;;5077841;28;20036;-62
2023/04/24 09:14:24;;;;;;;31.42;13.85;;;9.20;99.90;;;;;;5067861;28;20059;-64
2023/04/24 09:16:50;;;;;;;31.73;13.38;;;9.20;99.90;;;;;;5066855;28;20048;-66
2023/04/24 09:19:17;;;;;;;24.48;11.98;;;9.10;99.90;;;;;;5049982;28;20047;-61
2023/04/24 09:21:46;;;;;;;27.48;11.02;;;9.00;99.90;;;;;;5066661;28;20087;-64
2023/04/24 09:24:17;;;;;;;20.13;12.02;;;9.00;99.90;;;;;;5079858;28;20128;-62
2023/04/24 09:26:44;;;;;;;25.13;13.00;;;9.00;99.90;;;;;;5081529;28;20036;-63
2023/04/24 09:29:17;;;;;;;27.02;14.18;;;8.90;99.90;;;;;;5066481;28;20083;-64
2023/04/24 09:31:45;;;;;;;22.48;13.98;;;9.00;99.90;;;;;;5086177;28;20044;-63
2023/04/24 09:34:11;;;;;;;24.15;13.68;;;9.00;99.90;;;;;;5069651;28;20048;-64
2023/04/24 09:36:42;;;;;;;27.80;14.00;;;8.90;99.90;;;;;;5087943;28;20040;-64
2023/04/24 09:39:12;;;;;;;24.73;13.30;;;8.90;99.90;;;;;;5075362;28;20043;-65
2023/04/24 09:41:51;;;;;;;26.10;14.02;;;8.90;99.90;;;;;;5066324;28;20029;-63
2023/04/24 09:44:27;;;;;;;25.77;12.57;;;8.90;99.90;;;;;;5067892;28;20044;-64
2023/04/24 09:46:55;;;;;;;23.05;12.18;;;8.90;99.90;;;;;;5087516;28;20228;-63
2023/04/24 09:49:26;;;;;;;24.17;12.60;;;8.90;99.90;;;;;;5086565;28;20040;-63
2023/04/24 09:52:01;;;;;;;18.25;10.57;;;9.00;99.90;;;;;;5085047;28;20047;-63
2023/04/24 09:54:27;;;;;;;18.52;8.88;;;9.00;99.90;;;;;;5050620;28;20036;-66
2023/04/24 09:56:54;;;;;;;21.30;9.98;;;9.00;99.90;;;;;;5067090;28;20028;-65
2023/04/24 09:59:22;;;;;;;19.27;9.60;;;9.00;99.90;;;;;;5065591;28;20344;-61
2023/04/24 10:01:50;;;;;;;24.02;10.30;;;9.00;99.90;;;;;;5048879;28;20044;-64
2023/04/24 10:04:21;;;;;;;24.48;10.50;;;9.00;99.90;;;;;;5065946;28;20044;-63
2023/04/24 10:06:48;;;;;;;24.02;10.00;;;8.90;99.90;;;;;;5067280;28;20760;-65
2023/04/24 10:09:15;;;;;;;21.77;10.65;;;8.90;99.90;;;;;;5066054;28;20045;-64
2023/04/24 10:11:44;;;;;;;23.48;9.88;;;8.90;99.90;;;;;;5067007;28;20040;-62
2023/04/24 10:14:15;;;;;;;20.77;8.40;;;8.90;99.90;;;;;;5065907;28;20052;-64
2023/04/24 10:16:43;;;;;;;24.67;8.48;;;8.90;99.90;;;;;;5064504;28;20145;-62
2023/04/24 10:19:10;;;;;;;22.42;8.43;;;8.90;99.90;;;;;;5065648;28;20130;-63
2023/04/24 10:21:42;;;;;;;23.25;8.32;;;9.00;99.90;;;;;;5048916;28;20400;-64
2023/04/24 10:24:08;;;;;;;21.23;8.20;;;9.10;99.90;;;;;;5077684;28;20051;-65
2023/04/24 10:26:35;;;;;;;17.58;7.00;;;9.30;99.90;;;;;;5066172;28;20052;-65
2023/04/24 10:29:03;;;;;;;15.88;7.57;;;9.40;99.90;;;;;;5065505;28;20047;-64
2023/04/24 10:31:32;;;;;;;13.40;4.43;;;9.50;99.90;;;;;;5065239;28;20028;-66
2023/04/24 10:33:59;;;;;;;10.02;3.95;;;9.60;99.90;;;;;;5049203;28;20047;-62
2023/04/24 10:36:27;;;;;;;12.77;3.35;;;9.70;99.90;;;;;;5066717;28;20533;-64
2023/04/24 10:38:56;;;;;;;12.85;3.83;;;9.80;99.90;;;;;;5048760;28;20514;-66
2023/04/24 10:41:26;;;;;;;8.85;3.47;;;9.90;99.90;;;;;;5070488;28;20044;-62
2023/04/24 10:44:35;;;;;;;11.60;3.67;;;10.00;99.90;;;;;;5065121;28;20101;-66
2023/04/24 10:47:01;;;;;;;11.10;3.47;;;10.00;99.90;;;;;;4987413;28;20488;-63
2023/04/24 10:49:31;;;;;;;9.02;3.40;;;10.00;99.90;;;;;;5057109;28;20139;-66
2023/04/24 10:52:02;;;;;;;14.45;3.33;;;10.00;99.90;;;;;;5066218;28;20435;-67
2023/04/24 10:54:30;;;;;;;12.30;3.40;;;9.90;99.90;;;;;;5066450;28;20384;-65
2023/04/24 10:57:17;;;;;;;14.57;3.80;;;9.90;99.90;;;;;;5048073;28;20127;-63
2023/04/24 10:59:44;;;;;;;10.02;2.90;;;9.80;99.90;;;;;;5047647;28;20078;-66
2023/04/24 11:02:10;;;;;;;14.95;3.45;;;9.80;99.90;;;;;;5048169;28;20043;-66
2023/04/24 11:04:38;;;;;;;11.48;3.28;;;9.80;99.90;;;;;;5049292;28;20040;-65
2023/04/24 11:07:04;;;;;;;10.70;2.90;;;9.70;99.90;;;;;;5067898;28;20478;-62
2023/04/24 11:09:31;;;;;;;9.95;3.00;;;9.80;99.90;;;;;;5084940;28;20111;-63
2023/04/24 11:12:09;;;;;;;12.18;4.00;;;9.80;99.90;;;;;;5059786;28;20036;-63
2023/04/24 11:15:02;;;;;;;12.60;3.33;;;9.80;99.90;;;;;;5064312;28;20045;-68
2023/04/24 11:17:39;;;;;;;13.05;3.58;;;9.90;99.90;;;;;;5064351;28;20083;-65
2023/04/24 11:20:10;;;;;;;9.13;3.22;;;9.90;99.90;;;;;;5047565;28;20064;-68
2023/04/24 11:22:39;;;;;;;11.07;3.10;;;10.00;99.90;;;;;;5064714;28;20119;-65
2023/04/24 11:25:06;;;;;;;13.75;3.00;;;10.10;99.90;;;;;;5065500;28;20048;-64
2023/04/24 11:27:41;;;;;;;10.50;3.20;;;10.10;99.90;;;;;;5072361;28;20446;-65
2023/04/24 11:30:08;;;;;;;10.57;2.90;;;10.20;99.90;;;;;;5063880;28;20044;-65
2023/04/24 11:32:35;;;;;;;10.45;3.25;;;10.20;99.90;;;;;;5064086;28;20090;-67
2023/04/24 11:35:29;;;;;;;13.57;2.90;;;10.20;99.90;;;;;;5065684;28;20056;-66
2023/04/24 11:37:55;;;;;;;12.38;3.13;;;10.20;99.90;;;;;;5061849;28;20092;-65
2023/04/24 11:40:22;;;;;;;11.60;2.60;;;10.10;99.90;;;;;;5063951;28;20292;-66
2023/04/24 11:42:50;;;;;;;9.00;2.15;;;10.10;99.90;;;;;;5065286;28;20076;-66
2023/04/24 11:45:24;;;;;;;9.95;2.35;;;9.90;99.90;;;;;;5069339;28;20381;-65
2023/04/24 11:47:50;;;;;;;;;;;9.90;99.90;;;;;;5084770;28;20027;-65
2023/04/24 11:50:18;;;;;;;9.32;2.50;;;9.80;99.90;;;;;;5068857;28;19916;-65
2023/04/24 11:52:48;;;;;;;11.57;2.50;;;9.70;99.90;;;;;;5047444;28;20428;-64
2023/04/24 11:55:18;;;;;;;11.98;2.63;;;9.70;99.90;;;;;;5064029;28;20457;-68
2023/04/24 11:57:49;;;;;;;9.05;2.33;;;9.70;99.90;;;;;;5063593;28;20096;-67
2023/04/24 12:00:20;;;;;;;8.27;2.15;;;9.80;99.90;;;;;;5063563;28;20052;-65
2023/04/24 12:02:47;;;;;;;9.27;2.47;;;9.80;99.90;;;;;;5063737;28;20269;-66
2023/04/24 12:05:24;;;;;;;8.90;2.65;;;10.00;99.90;;;;;;5063615;28;20044;-66
2023/04/24 12:07:53;;;;;;;10.77;2.60;;;10.00;99.90;;;;;;5062045;28;20078;-66
2023/04/24 12:10:21;;;;;;;8.95;2.35;;;10.00;99.90;;;;;;5083725;28;20446;-65
2023/04/24 12:12:49;;;;;;;8.15;2.42;;;10.00;99.90;;;;;;5068916;28;20119;-66
2023/04/24 12:15:16;;;;;;;8.98;2.20;;;9.90;99.90;;;;;;5064726;28;20044;-67
2023/04/24 12:17:43;;;;;;;9.68;1.80;;;9.80;99.90;;;;;;5063644;28;20079;-66
2023/04/24 12:20:09;;;;;;;5.05;1.60;;;9.70;99.90;;;;;;5047641;28;20032;-67
2023/04/24 12:22:49;;;;;;;8.45;1.70;;;9.60;99.90;;;;;;5067093;28;20548;-66
2023/04/24 12:25:19;;;;;;;9.93;2.13;;;9.50;99.90;;;;;;5066878;28;20502;-67
2023/04/24 12:27:46;;;;;;;7.55;1.90;;;9.40;99.90;;;;;;5073251;28;20509;-66
2023/04/24 12:30:14;;;;;;;8.38;1.83;;;9.40;99.90;;;;;;5070328;28;20090;-63
2023/04/24 12:32:47;;;;;;;8.35;2.28;;;9.30;99.90;;;;;;5057898;28;20036;-65
2023/04/24 12:35:13;;;;;;;6.00;1.80;;;9.40;99.90;;;;;;5079636;28;20120;-65
2023/04/24 12:37:43;;;;;;;8.00;1.90;;;9.40;99.90;;;;;;5059973;28;20395;-64
2023/04/24 12:40:12;;;;;;;8.90;2.05;;;9.50;99.90;;;;;;5065926;28;20044;-65
2023/04/24 12:42:46;;;;;;;7.50;1.83;;;9.60;99.90;;;;;;5082098;28;20146;-64
2023/04/24 12:45:13;;;;;;;12.77;2.03;;;9.70;99.90;;;;;;5064519;28;20044;-63
2023/04/24 12:47:41;;;;;;;9.95;2.03;;;9.80;99.90;;;;;;5049957;28;20032;-65